sensor_id;sensor_type;location;lat;lon;timestamp;temperature;humidity
814;DHT22;389;48.710;9.392;2022-09-27T00:00:38;12.40;99.30
814;DHT22;389;48.710;9.392;2022-09-27T00:03:05;12.40;99.30
814;DHT22;389;48.710;9.392;2022-09-27T00:05:30;12.50;99.50
814;DHT22;389;48.710;9.392;2022-09-27T00:07:56;12.40;99.50
814;DHT22;389;48.710;9.392;2022-09-27T00:10:22;12.50;99.60
814;DHT22;389;48.710;9.392;2022-09-27T00:12:47;12.40;99.80
814;DHT22;389;48.710;9.392;2022-09-27T00:15:13;12.30;99.70
814;DHT22;389;48.710;9.392;2022-09-27T00:17:39;12.30;99.70
814;DHT22;389;48.710;9.392;2022-09-27T00:20:06;12.30;99.80
814;DHT22;389;48.710;9.392;2022-09-27T00:22:32;12.30;99.80
814;DHT22;389;48.710;9.392;2022-09-27T00:24:58;12.30;99.90
814;DHT22;389;48.710;9.392;2022-09-27T00:27:25;12.40;99.90
814;DHT22;389;48.710;9.392;2022-09-27T00:29:51;12.30;99.90
814;DHT22;389;48.710;9.392;2022-09-27T00:32:17;12.30;99.90
814;DHT22;389;48.710;9.392;2022-09-27T00:34:43;12.30;99.90
814;DHT22;389;48.710;9.392;2022-09-27T00:37:09;12.30;99.90
814;DHT22;389;48.710;9.392;2022-09-27T00:39:35;12.40;99.90
814;DHT22;389;48.710;9.392;2022-09-27T00:42:03;12.20;99.90
814;DHT22;389;48.710;9.392;2022-09-27T00:49:35;12.20;99.90
814;DHT22;389;48.710;9.392;2022-09-27T00:52:06;12.30;99.90
814;DHT22;389;48.710;9.392;2022-09-27T00:54:35;12.20;99.90
814;DHT22;389;48.710;9.392;2022-09-27T00:57:02;12.20;99.90
814;DHT22;389;48.710;9.392;2022-09-27T00:59:43;12.20;99.90
814;DHT22;389;48.710;9.392;2022-09-27T01:02:10;12.30;99.90
814;DHT22;389;48.710;9.392;2022-09-27T01:04:37;12.20;99.90
814;DHT22;389;48.710;9.392;2022-09-27T01:07:03;12.10;99.90
814;DHT22;389;48.710;9.392;2022-09-27T01:09:29;12.20;99.90
814;DHT22;389;48.710;9.392;2022-09-27T01:15:17;12.10;99.90
814;DHT22;389;48.710;9.392;2022-09-27T01:29:10;12.10;99.90
814;DHT22;389;48.710;9.392;2022-09-27T01:32:10;12.10;99.90
814;DHT22;389;48.710;9.392;2022-09-27T01:37:36;12.10;99.90
814;DHT22;389;48.710;9.392;2022-09-27T01:42:59;12.10;99.90
814;DHT22;389;48.710;9.392;2022-09-27T01:48:21;12.10;99.90
814;DHT22;389;48.710;9.392;2022-09-27T01:53:30;12.10;99.90
814;DHT22;389;48.710;9.392;2022-09-27T01:56:01;12.10;99.90
814;DHT22;389;48.710;9.392;2022-09-27T01:58:33;12.10;99.90
814;DHT22;389;48.710;9.392;2022-09-27T02:01:02;12.20;99.90
814;DHT22;389;48.710;9.392;2022-09-27T02:03:36;12.10;99.90
814;DHT22;389;48.710;9.392;2022-09-27T02:06:11;12.20;99.90
814;DHT22;389;48.710;9.392;2022-09-27T02:11:18;12.20;99.90
814;DHT22;389;48.710;9.392;2022-09-27T02:19:22;12.30;99.90
814;DHT22;389;48.710;9.392;2022-09-27T02:25:10;12.30;99.90
814;DHT22;389;48.710;9.392;2022-09-27T02:27:48;12.30;99.90
814;DHT22;389;48.710;9.392;2022-09-27T02:30:15;12.30;99.90
814;DHT22;389;48.710;9.392;2022-09-27T02:32:42;12.30;99.90
814;DHT22;389;48.710;9.392;2022-09-27T02:37:46;12.30;99.90
814;DHT22;389;48.710;9.392;2022-09-27T02:40:12;12.40;99.90
814;DHT22;389;48.710;9.392;2022-09-27T02:42:39;12.30;99.90
814;DHT22;389;48.710;9.392;2022-09-27T02:45:07;12.20;99.90
814;DHT22;389;48.710;9.392;2022-09-27T02:51:17;12.20;99.90
814;DHT22;389;48.710;9.392;2022-09-27T02:56:42;12.10;99.90
814;DHT22;389;48.710;9.392;2022-09-27T03:02:12;12.00;99.90
814;DHT22;389;48.710;9.392;2022-09-27T03:07:08;12.00;99.90
814;DHT22;389;48.710;9.392;2022-09-27T03:09:49;12.00;99.90
814;DHT22;389;48.710;9.392;2022-09-27T03:12:15;12.00;99.90
814;DHT22;389;48.710;9.392;2022-09-27T03:14:47;12.00;99.90
814;DHT22;389;48.710;9.392;2022-09-27T03:17:13;12.00;99.90
814;DHT22;389;48.710;9.392;2022-09-27T03:19:39;12.00;99.90
814;DHT22;389;48.710;9.392;2022-09-27T03:22:04;12.00;99.90
814;DHT22;389;48.710;9.392;2022-09-27T03:24:30;12.00;99.90
814;DHT22;389;48.710;9.392;2022-09-27T03:26:55;12.00;99.90
814;DHT22;389;48.710;9.392;2022-09-27T03:29:21;11.90;99.90
814;DHT22;389;48.710;9.392;2022-09-27T03:31:47;11.90;99.90
814;DHT22;389;48.710;9.392;2022-09-27T03:34:13;11.90;99.90
814;DHT22;389;48.710;9.392;2022-09-27T03:36:38;11.90;99.90
814;DHT22;389;48.710;9.392;2022-09-27T03:39:04;11.90;99.90
814;DHT22;389;48.710;9.392;2022-09-27T03:41:29;11.90;99.90
814;DHT22;389;48.710;9.392;2022-09-27T03:43:55;11.80;99.40
814;DHT22;389;48.710;9.392;2022-09-27T03:46:22;11.80;99.40
814;DHT22;389;48.710;9.392;2022-09-27T03:48:48;11.80;99.10
814;DHT22;389;48.710;9.392;2022-09-27T03:51:13;11.80;99.00
814;DHT22;389;48.710;9.392;2022-09-27T03:53:39;11.70;99.10
814;DHT22;389;48.710;9.392;2022-09-27T03:56:05;11.80;99.20
814;DHT22;389;48.710;9.392;2022-09-27T03:58:30;11.70;99.20
814;DHT22;389;48.710;9.392;2022-09-27T04:00:56;11.70;99.10
814;DHT22;389;48.710;9.392;2022-09-27T04:03:21;11.70;99.00
814;DHT22;389;48.710;9.392;2022-09-27T04:05:47;11.80;99.20
814;DHT22;389;48.710;9.392;2022-09-27T04:08:12;11.70;99.20
814;DHT22;389;48.710;9.392;2022-09-27T04:10:38;11.70;99.30
814;DHT22;389;48.710;9.392;2022-09-27T04:13:04;11.70;99.30
814;DHT22;389;48.710;9.392;2022-09-27T04:15:29;11.70;99.30
814;DHT22;389;48.710;9.392;2022-09-27T04:17:55;11.70;99.30
814;DHT22;389;48.710;9.392;2022-09-27T04:20:20;11.70;99.30
814;DHT22;389;48.710;9.392;2022-09-27T04:22:46;11.80;99.40
814;DHT22;389;48.710;9.392;2022-09-27T04:25:12;11.70;99.40
814;DHT22;389;48.710;9.392;2022-09-27T04:27:42;11.70;99.50
814;DHT22;389;48.710;9.392;2022-09-27T04:30:10;11.70;99.50
814;DHT22;389;48.710;9.392;2022-09-27T04:32:40;11.70;99.70
814;DHT22;389;48.710;9.392;2022-09-27T04:35:06;11.80;99.90
814;DHT22;389;48.710;9.392;2022-09-27T04:37:50;11.80;99.90
814;DHT22;389;48.710;9.392;2022-09-27T04:40:16;11.70;99.90
814;DHT22;389;48.710;9.392;2022-09-27T04:42:41;11.80;99.90
814;DHT22;389;48.710;9.392;2022-09-27T04:45:07;11.80;99.90
814;DHT22;389;48.710;9.392;2022-09-27T04:47:33;11.80;99.90
814;DHT22;389;48.710;9.392;2022-09-27T04:49:59;11.80;99.90
814;DHT22;389;48.710;9.392;2022-09-27T04:52:25;11.80;99.90
814;DHT22;389;48.710;9.392;2022-09-27T04:54:50;11.80;99.90
814;DHT22;389;48.710;9.392;2022-09-27T04:57:16;11.90;99.90
814;DHT22;389;48.710;9.392;2022-09-27T04:59:41;11.80;99.90
814;DHT22;389;48.710;9.392;2022-09-27T05:02:07;11.80;99.90
814;DHT22;389;48.710;9.392;2022-09-27T05:04:32;11.80;99.90
814;DHT22;389;48.710;9.392;2022-09-27T05:06:58;11.80;99.90
814;DHT22;389;48.710;9.392;2022-09-27T05:09:24;11.80;99.90
814;DHT22;389;48.710;9.392;2022-09-27T05:11:49;11.80;99.90
814;DHT22;389;48.710;9.392;2022-09-27T05:14:15;11.80;99.90
814;DHT22;389;48.710;9.392;2022-09-27T05:16:40;11.90;99.90
814;DHT22;389;48.710;9.392;2022-09-27T05:19:06;11.80;99.90
814;DHT22;389;48.710;9.392;2022-09-27T05:21:31;11.80;99.90
814;DHT22;389;48.710;9.392;2022-09-27T05:23:57;11.80;99.90
814;DHT22;389;48.710;9.392;2022-09-27T05:26:24;11.80;99.90
814;DHT22;389;48.710;9.392;2022-09-27T05:28:49;11.90;99.90
814;DHT22;389;48.710;9.392;2022-09-27T05:31:15;11.80;99.90
814;DHT22;389;48.710;9.392;2022-09-27T05:33:41;11.90;99.90
814;DHT22;389;48.710;9.392;2022-09-27T05:36:07;11.80;99.90
814;DHT22;389;48.710;9.392;2022-09-27T05:38:33;11.80;99.90
814;DHT22;389;48.710;9.392;2022-09-27T05:40:59;11.80;99.90
814;DHT22;389;48.710;9.392;2022-09-27T05:43:25;11.80;99.90
814;DHT22;389;48.710;9.392;2022-09-27T05:45:51;11.80;99.90
814;DHT22;389;48.710;9.392;2022-09-27T05:48:17;11.70;99.80
814;DHT22;389;48.710;9.392;2022-09-27T05:50:44;11.80;99.90
814;DHT22;389;48.710;9.392;2022-09-27T05:53:10;11.70;99.90
814;DHT22;389;48.710;9.392;2022-09-27T05:55:37;11.80;99.90
814;DHT22;389;48.710;9.392;2022-09-27T05:58:06;11.80;99.80
814;DHT22;389;48.710;9.392;2022-09-27T06:00:31;11.80;99.90
814;DHT22;389;48.710;9.392;2022-09-27T06:02:59;11.80;99.80
814;DHT22;389;48.710;9.392;2022-09-27T06:05:27;11.70;99.80
814;DHT22;389;48.710;9.392;2022-09-27T06:07:58;11.70;99.90
814;DHT22;389;48.710;9.392;2022-09-27T06:10:25;11.70;99.90
814;DHT22;389;48.710;9.392;2022-09-27T06:12:51;11.70;99.90
814;DHT22;389;48.710;9.392;2022-09-27T06:15:16;11.60;99.90
814;DHT22;389;48.710;9.392;2022-09-27T06:17:42;11.60;99.90
814;DHT22;389;48.710;9.392;2022-09-27T06:20:08;11.60;99.90
814;DHT22;389;48.710;9.392;2022-09-27T06:22:34;11.50;99.90
814;DHT22;389;48.710;9.392;2022-09-27T06:25:01;11.50;99.90
814;DHT22;389;48.710;9.392;2022-09-27T06:27:28;11.50;99.90
814;DHT22;389;48.710;9.392;2022-09-27T06:29:57;11.50;99.90
814;DHT22;389;48.710;9.392;2022-09-27T06:32:23;11.60;99.90
814;DHT22;389;48.710;9.392;2022-09-27T06:34:48;11.60;99.90
814;DHT22;389;48.710;9.392;2022-09-27T06:37:14;11.60;99.90
814;DHT22;389;48.710;9.392;2022-09-27T06:39:39;11.50;99.90
814;DHT22;389;48.710;9.392;2022-09-27T06:42:05;11.60;99.90
814;DHT22;389;48.710;9.392;2022-09-27T06:44:31;11.60;99.90
814;DHT22;389;48.710;9.392;2022-09-27T06:46:57;11.60;99.90
814;DHT22;389;48.710;9.392;2022-09-27T06:49:22;11.70;99.90
814;DHT22;389;48.710;9.392;2022-09-27T06:51:50;11.70;99.90
814;DHT22;389;48.710;9.392;2022-09-27T06:54:17;11.80;99.90
814;DHT22;389;48.710;9.392;2022-09-27T06:56:46;11.80;99.90
814;DHT22;389;48.710;9.392;2022-09-27T06:59:11;11.80;99.60
814;DHT22;389;48.710;9.392;2022-09-27T07:01:55;11.90;99.70
814;DHT22;389;48.710;9.392;2022-09-27T07:04:21;11.90;99.50
814;DHT22;389;48.710;9.392;2022-09-27T07:06:47;11.90;99.10
814;DHT22;389;48.710;9.392;2022-09-27T07:09:12;12.00;99.10
814;DHT22;389;48.710;9.392;2022-09-27T07:11:39;11.90;98.60
814;DHT22;389;48.710;9.392;2022-09-27T07:14:04;12.00;98.50
814;DHT22;389;48.710;9.392;2022-09-27T07:16:31;12.00;98.70
814;DHT22;389;48.710;9.392;2022-09-27T07:18:59;12.10;98.60
814;DHT22;389;48.710;9.392;2022-09-27T07:21:24;12.20;98.40
814;DHT22;389;48.710;9.392;2022-09-27T07:23:50;12.30;98.00
814;DHT22;389;48.710;9.392;2022-09-27T07:26:15;12.40;98.00
814;DHT22;389;48.710;9.392;2022-09-27T07:28:41;12.60;98.10
814;DHT22;389;48.710;9.392;2022-09-27T07:31:07;12.60;97.80
814;DHT22;389;48.710;9.392;2022-09-27T07:33:33;12.70;97.50
814;DHT22;389;48.710;9.392;2022-09-27T07:35:59;12.70;97.40
814;DHT22;389;48.710;9.392;2022-09-27T07:38:25;12.80;97.10
814;DHT22;389;48.710;9.392;2022-09-27T07:40:51;12.80;97.10
814;DHT22;389;48.710;9.392;2022-09-27T07:43:17;12.90;96.90
814;DHT22;389;48.710;9.392;2022-09-27T07:45:43;13.00;96.60
814;DHT22;389;48.710;9.392;2022-09-27T07:48:13;12.90;96.00
814;DHT22;389;48.710;9.392;2022-09-27T07:50:39;12.80;95.40
814;DHT22;389;48.710;9.392;2022-09-27T07:53:04;12.90;95.60
814;DHT22;389;48.710;9.392;2022-09-27T07:55:30;12.90;95.60
814;DHT22;389;48.710;9.392;2022-09-27T07:58:07;13.00;95.60
814;DHT22;389;48.710;9.392;2022-09-27T08:00:34;13.00;95.70
814;DHT22;389;48.710;9.392;2022-09-27T08:03:09;13.00;95.60
814;DHT22;389;48.710;9.392;2022-09-27T08:05:36;13.10;95.50
814;DHT22;389;48.710;9.392;2022-09-27T08:08:02;13.10;95.60
814;DHT22;389;48.710;9.392;2022-09-27T08:10:30;13.10;95.30
814;DHT22;389;48.710;9.392;2022-09-27T08:12:57;13.40;95.40
814;DHT22;389;48.710;9.392;2022-09-27T08:15:23;13.30;95.20
814;DHT22;389;48.710;9.392;2022-09-27T08:17:48;13.60;95.40
814;DHT22;389;48.710;9.392;2022-09-27T08:20:15;13.60;95.50
814;DHT22;389;48.710;9.392;2022-09-27T08:22:42;13.80;94.80
814;DHT22;389;48.710;9.392;2022-09-27T08:25:08;13.90;93.80
814;DHT22;389;48.710;9.392;2022-09-27T08:27:33;14.00;93.70
814;DHT22;389;48.710;9.392;2022-09-27T08:29:59;14.00;93.20
814;DHT22;389;48.710;9.392;2022-09-27T08:32:25;14.20;93.70
814;DHT22;389;48.710;9.392;2022-09-27T08:34:52;14.30;93.50
814;DHT22;389;48.710;9.392;2022-09-27T08:37:17;14.10;93.20
814;DHT22;389;48.710;9.392;2022-09-27T08:39:43;14.10;93.40
814;DHT22;389;48.710;9.392;2022-09-27T08:42:26;14.10;93.20
814;DHT22;389;48.710;9.392;2022-09-27T08:45:12;14.20;93.00
814;DHT22;389;48.710;9.392;2022-09-27T08:47:48;14.30;92.80
814;DHT22;389;48.710;9.392;2022-09-27T08:58:03;14.70;91.80
814;DHT22;389;48.710;9.392;2022-09-27T09:00:34;14.70;91.60
814;DHT22;389;48.710;9.392;2022-09-27T09:03:01;14.80;91.90
814;DHT22;389;48.710;9.392;2022-09-27T09:05:32;14.70;91.60
814;DHT22;389;48.710;9.392;2022-09-27T09:08:31;14.70;91.90
814;DHT22;389;48.710;9.392;2022-09-27T09:16:49;13.90;94.00
814;DHT22;389;48.710;9.392;2022-09-27T09:22:38;13.60;95.00
814;DHT22;389;48.710;9.392;2022-09-27T09:25:28;13.60;95.50
814;DHT22;389;48.710;9.392;2022-09-27T09:31:03;13.90;95.50
814;DHT22;389;48.710;9.392;2022-09-27T09:33:36;14.10;93.90
814;DHT22;389;48.710;9.392;2022-09-27T09:36:22;14.30;94.00
814;DHT22;389;48.710;9.392;2022-09-27T09:42:06;14.70;93.00
814;DHT22;389;48.710;9.392;2022-09-27T09:44:33;14.80;92.80
814;DHT22;389;48.710;9.392;2022-09-27T09:47:03;15.00;92.30
814;DHT22;389;48.710;9.392;2022-09-27T09:49:47;15.10;91.60
814;DHT22;389;48.710;9.392;2022-09-27T09:52:22;15.40;91.40
814;DHT22;389;48.710;9.392;2022-09-27T09:55:13;15.60;92.00
814;DHT22;389;48.710;9.392;2022-09-27T09:57:45;15.80;91.70
814;DHT22;389;48.710;9.392;2022-09-27T10:00:16;16.10;91.00
814;DHT22;389;48.710;9.392;2022-09-27T10:02:45;16.40;90.10
814;DHT22;389;48.710;9.392;2022-09-27T10:05:17;16.50;86.60
814;DHT22;389;48.710;9.392;2022-09-27T10:07:43;16.50;86.60
814;DHT22;389;48.710;9.392;2022-09-27T10:10:14;16.70;85.80
814;DHT22;389;48.710;9.392;2022-09-27T10:12:41;16.60;84.10
814;DHT22;389;48.710;9.392;2022-09-27T10:15:13;16.70;84.80
814;DHT22;389;48.710;9.392;2022-09-27T10:17:43;16.60;83.50
814;DHT22;389;48.710;9.392;2022-09-27T10:20:23;16.80;82.70
814;DHT22;389;48.710;9.392;2022-09-27T10:22:53;16.70;83.50
814;DHT22;389;48.710;9.392;2022-09-27T10:25:20;16.80;83.10
814;DHT22;389;48.710;9.392;2022-09-27T10:27:48;16.80;82.50
814;DHT22;389;48.710;9.392;2022-09-27T10:30:31;16.90;80.90
814;DHT22;389;48.710;9.392;2022-09-27T10:33:12;16.80;79.20
814;DHT22;389;48.710;9.392;2022-09-27T10:35:42;16.60;81.10
814;DHT22;389;48.710;9.392;2022-09-27T10:40:45;16.80;82.00
814;DHT22;389;48.710;9.392;2022-09-27T10:48:36;17.20;78.20
814;DHT22;389;48.710;9.392;2022-09-27T10:51:05;17.20;79.20
814;DHT22;389;48.710;9.392;2022-09-27T10:53:32;17.20;79.40
814;DHT22;389;48.710;9.392;2022-09-27T10:55:59;17.10;78.80
814;DHT22;389;48.710;9.392;2022-09-27T10:58:26;17.00;80.20
814;DHT22;389;48.710;9.392;2022-09-27T11:00:56;16.90;80.60
814;DHT22;389;48.710;9.392;2022-09-27T11:03:23;16.90;81.70
814;DHT22;389;48.710;9.392;2022-09-27T11:05:50;17.00;82.40
814;DHT22;389;48.710;9.392;2022-09-27T11:08:19;16.90;83.00
814;DHT22;389;48.710;9.392;2022-09-27T11:11:26;16.90;82.90
814;DHT22;389;48.710;9.392;2022-09-27T11:14:16;17.10;82.60
814;DHT22;389;48.710;9.392;2022-09-27T11:19:41;17.40;81.50
814;DHT22;389;48.710;9.392;2022-09-27T11:30:22;17.40;80.20
814;DHT22;389;48.710;9.392;2022-09-27T11:38:27;17.60;79.50
814;DHT22;389;48.710;9.392;2022-09-27T11:47:21;17.60;76.90
814;DHT22;389;48.710;9.392;2022-09-27T12:06:33;16.60;80.20
814;DHT22;389;48.710;9.392;2022-09-27T12:09:21;16.50;80.90
814;DHT22;389;48.710;9.392;2022-09-27T12:11:56;16.40;79.60
814;DHT22;389;48.710;9.392;2022-09-27T12:15:00;16.40;78.20
814;DHT22;389;48.710;9.392;2022-09-27T12:17:25;16.20;78.90
814;DHT22;389;48.710;9.392;2022-09-27T12:19:55;16.10;79.50
814;DHT22;389;48.710;9.392;2022-09-27T12:22:29;16.00;80.60
814;DHT22;389;48.710;9.392;2022-09-27T12:24:57;16.10;81.30
814;DHT22;389;48.710;9.392;2022-09-27T12:27:48;15.90;81.20
814;DHT22;389;48.710;9.392;2022-09-27T12:30:16;15.90;82.20
814;DHT22;389;48.710;9.392;2022-09-27T12:33:03;15.90;84.40
814;DHT22;389;48.710;9.392;2022-09-27T12:35:34;15.70;86.10
814;DHT22;389;48.710;9.392;2022-09-27T12:38:16;15.40;88.90
814;DHT22;389;48.710;9.392;2022-09-27T12:40:47;15.20;90.50
814;DHT22;389;48.710;9.392;2022-09-27T12:43:22;15.00;91.20
814;DHT22;389;48.710;9.392;2022-09-27T12:48:33;14.80;92.50
814;DHT22;389;48.710;9.392;2022-09-27T12:51:06;14.60;93.20
814;DHT22;389;48.710;9.392;2022-09-27T12:56:39;14.50;93.00
814;DHT22;389;48.710;9.392;2022-09-27T13:13:03;14.10;91.90
814;DHT22;389;48.710;9.392;2022-09-27T13:15:35;14.10;92.20
814;DHT22;389;48.710;9.392;2022-09-27T13:18:06;14.30;92.90
814;DHT22;389;48.710;9.392;2022-09-27T13:20:50;14.40;93.00
814;DHT22;389;48.710;9.392;2022-09-27T13:25:54;14.80;92.80
814;DHT22;389;48.710;9.392;2022-09-27T13:31:10;15.00;91.30
814;DHT22;389;48.710;9.392;2022-09-27T13:33:49;14.90;91.10
814;DHT22;389;48.710;9.392;2022-09-27T13:41:55;15.00;91.10
814;DHT22;389;48.710;9.392;2022-09-27T13:47:19;15.00;91.50
814;DHT22;389;48.710;9.392;2022-09-27T13:49:49;14.90;92.00
814;DHT22;389;48.710;9.392;2022-09-27T13:52:38;15.10;92.30
814;DHT22;389;48.710;9.392;2022-09-27T13:55:40;14.90;92.60
814;DHT22;389;48.710;9.392;2022-09-27T14:00:44;15.00;92.90
814;DHT22;389;48.710;9.392;2022-09-27T14:06:05;15.10;93.00
814;DHT22;389;48.710;9.392;2022-09-27T14:08:36;15.20;91.90
814;DHT22;389;48.710;9.392;2022-09-27T14:11:11;15.30;91.60
814;DHT22;389;48.710;9.392;2022-09-27T14:13:37;15.50;91.20
814;DHT22;389;48.710;9.392;2022-09-27T14:16:04;15.70;91.40
814;DHT22;389;48.710;9.392;2022-09-27T14:18:58;15.70;91.10
814;DHT22;389;48.710;9.392;2022-09-27T14:21:36;15.80;90.90
814;DHT22;389;48.710;9.392;2022-09-27T14:24:29;15.90;90.30
814;DHT22;389;48.710;9.392;2022-09-27T14:27:07;15.80;88.00
814;DHT22;389;48.710;9.392;2022-09-27T14:30:00;15.70;87.80
814;DHT22;389;48.710;9.392;2022-09-27T14:32:59;15.60;88.00
814;DHT22;389;48.710;9.392;2022-09-27T14:35:30;15.40;87.70
814;DHT22;389;48.710;9.392;2022-09-27T14:38:18;15.30;87.40
814;DHT22;389;48.710;9.392;2022-09-27T14:41:01;15.40;88.10
814;DHT22;389;48.710;9.392;2022-09-27T14:43:29;15.10;88.60
814;DHT22;389;48.710;9.392;2022-09-27T14:46:03;14.90;90.10
814;DHT22;389;48.710;9.392;2022-09-27T14:48:37;14.80;90.50
814;DHT22;389;48.710;9.392;2022-09-27T14:53:57;14.70;91.10
814;DHT22;389;48.710;9.392;2022-09-27T14:56:33;14.60;91.10
814;DHT22;389;48.710;9.392;2022-09-27T15:02:24;14.20;91.20
814;DHT22;389;48.710;9.392;2022-09-27T15:04:51;14.20;91.50
814;DHT22;389;48.710;9.392;2022-09-27T15:07:18;14.10;91.60
814;DHT22;389;48.710;9.392;2022-09-27T15:09:46;14.10;91.10
814;DHT22;389;48.710;9.392;2022-09-27T15:12:23;14.10;91.70
814;DHT22;389;48.710;9.392;2022-09-27T15:15:11;14.10;92.00
814;DHT22;389;48.710;9.392;2022-09-27T15:17:43;14.10;92.00
814;DHT22;389;48.710;9.392;2022-09-27T15:20:30;14.20;91.80
814;DHT22;389;48.710;9.392;2022-09-27T15:22:58;14.40;91.80
814;DHT22;389;48.710;9.392;2022-09-27T15:28:12;14.60;91.40
814;DHT22;389;48.710;9.392;2022-09-27T15:30:56;14.70;91.20
814;DHT22;389;48.710;9.392;2022-09-27T15:33:24;14.70;90.20
814;DHT22;389;48.710;9.392;2022-09-27T15:35:53;14.80;88.40
814;DHT22;389;48.710;9.392;2022-09-27T15:38:35;14.60;85.90
814;DHT22;389;48.710;9.392;2022-09-27T15:41:09;14.60;85.40
814;DHT22;389;48.710;9.392;2022-09-27T15:46:35;14.50;84.50
814;DHT22;389;48.710;9.392;2022-09-27T15:51:53;14.30;86.40
814;DHT22;389;48.710;9.392;2022-09-27T15:54:21;14.20;86.30
814;DHT22;389;48.710;9.392;2022-09-27T15:56:48;14.10;86.30
814;DHT22;389;48.710;9.392;2022-09-27T15:59:23;14.00;86.70
814;DHT22;389;48.710;9.392;2022-09-27T16:01:54;13.90;87.40
814;DHT22;389;48.710;9.392;2022-09-27T16:04:20;13.80;87.50
814;DHT22;389;48.710;9.392;2022-09-27T16:06:57;13.80;88.10
814;DHT22;389;48.710;9.392;2022-09-27T16:09:23;13.80;88.80
814;DHT22;389;48.710;9.392;2022-09-27T16:11:49;13.70;89.20
814;DHT22;389;48.710;9.392;2022-09-27T16:14:16;13.70;89.30
814;DHT22;389;48.710;9.392;2022-09-27T16:16:49;13.70;89.50
814;DHT22;389;48.710;9.392;2022-09-27T16:19:16;13.80;89.10
814;DHT22;389;48.710;9.392;2022-09-27T16:21:41;13.60;89.10
814;DHT22;389;48.710;9.392;2022-09-27T16:24:11;13.60;89.20
814;DHT22;389;48.710;9.392;2022-09-27T16:26:44;13.60;88.70
814;DHT22;389;48.710;9.392;2022-09-27T16:29:14;13.60;88.90
814;DHT22;389;48.710;9.392;2022-09-27T16:31:41;13.40;88.50
814;DHT22;389;48.710;9.392;2022-09-27T16:34:08;13.30;88.40
814;DHT22;389;48.710;9.392;2022-09-27T16:36:35;13.40;88.60
814;DHT22;389;48.710;9.392;2022-09-27T16:39:15;13.40;88.70
814;DHT22;389;48.710;9.392;2022-09-27T16:41:41;13.30;88.70
814;DHT22;389;48.710;9.392;2022-09-27T16:44:11;13.40;88.70
814;DHT22;389;48.710;9.392;2022-09-27T16:46:41;13.30;88.20
814;DHT22;389;48.710;9.392;2022-09-27T16:49:11;13.20;87.50
814;DHT22;389;48.710;9.392;2022-09-27T16:51:59;13.00;87.10
814;DHT22;389;48.710;9.392;2022-09-27T16:54:37;12.90;87.10
814;DHT22;389;48.710;9.392;2022-09-27T16:57:08;13.00;87.20
814;DHT22;389;48.710;9.392;2022-09-27T17:00:29;13.10;87.50
814;DHT22;389;48.710;9.392;2022-09-27T17:02:59;13.00;87.70
814;DHT22;389;48.710;9.392;2022-09-27T17:05:25;12.90;87.40
814;DHT22;389;48.710;9.392;2022-09-27T17:07:54;13.00;87.60
814;DHT22;389;48.710;9.392;2022-09-27T17:10:22;12.90;87.60
814;DHT22;389;48.710;9.392;2022-09-27T17:12:51;12.80;87.60
814;DHT22;389;48.710;9.392;2022-09-27T17:15:17;12.80;87.80
814;DHT22;389;48.710;9.392;2022-09-27T17:17:47;12.90;87.40
814;DHT22;389;48.710;9.392;2022-09-27T17:20:20;12.70;87.40
814;DHT22;389;48.710;9.392;2022-09-27T17:22:46;12.70;87.50
814;DHT22;389;48.710;9.392;2022-09-27T17:25:20;12.70;87.70
814;DHT22;389;48.710;9.392;2022-09-27T17:27:49;12.70;87.80
814;DHT22;389;48.710;9.392;2022-09-27T17:30:25;12.70;88.00
814;DHT22;389;48.710;9.392;2022-09-27T17:32:50;12.70;88.50
814;DHT22;389;48.710;9.392;2022-09-27T17:35:23;12.60;88.60
814;DHT22;389;48.710;9.392;2022-09-27T17:37:56;12.60;88.90
814;DHT22;389;48.710;9.392;2022-09-27T17:40:28;12.60;89.20
814;DHT22;389;48.710;9.392;2022-09-27T17:42:59;12.60;89.70
814;DHT22;389;48.710;9.392;2022-09-27T17:45:25;12.50;90.20
814;DHT22;389;48.710;9.392;2022-09-27T17:47:51;12.50;90.50
814;DHT22;389;48.710;9.392;2022-09-27T17:50:35;12.50;90.60
814;DHT22;389;48.710;9.392;2022-09-27T17:53:02;12.40;90.60
814;DHT22;389;48.710;9.392;2022-09-27T17:55:28;12.50;90.80
814;DHT22;389;48.710;9.392;2022-09-27T17:57:54;12.50;90.90
814;DHT22;389;48.710;9.392;2022-09-27T18:00:19;12.30;91.00
814;DHT22;389;48.710;9.392;2022-09-27T18:02:45;12.30;91.10
814;DHT22;389;48.710;9.392;2022-09-27T18:05:11;12.30;91.40
814;DHT22;389;48.710;9.392;2022-09-27T18:07:37;12.40;92.00
814;DHT22;389;48.710;9.392;2022-09-27T18:10:03;12.30;92.30
814;DHT22;389;48.710;9.392;2022-09-27T18:12:29;12.20;92.80
814;DHT22;389;48.710;9.392;2022-09-27T18:14:59;12.20;93.30
814;DHT22;389;48.710;9.392;2022-09-27T18:17:25;12.10;93.60
814;DHT22;389;48.710;9.392;2022-09-27T18:19:53;12.00;93.90
814;DHT22;389;48.710;9.392;2022-09-27T18:22:18;12.00;94.20
814;DHT22;389;48.710;9.392;2022-09-27T18:24:44;11.90;94.50
814;DHT22;389;48.710;9.392;2022-09-27T18:27:10;11.80;94.70
814;DHT22;389;48.710;9.392;2022-09-27T18:29:41;11.70;95.10
814;DHT22;389;48.710;9.392;2022-09-27T18:32:07;11.60;95.50
814;DHT22;389;48.710;9.392;2022-09-27T18:34:32;11.60;95.70
814;DHT22;389;48.710;9.392;2022-09-27T18:36:58;11.50;95.70
814;DHT22;389;48.710;9.392;2022-09-27T18:39:23;11.40;96.00
814;DHT22;389;48.710;9.392;2022-09-27T18:41:49;11.40;96.20
814;DHT22;389;48.710;9.392;2022-09-27T18:44:16;11.30;96.40
814;DHT22;389;48.710;9.392;2022-09-27T18:46:43;11.30;96.70
814;DHT22;389;48.710;9.392;2022-09-27T18:49:10;11.30;97.00
814;DHT22;389;48.710;9.392;2022-09-27T18:51:37;11.20;97.20
814;DHT22;389;48.710;9.392;2022-09-27T18:54:08;11.20;97.30
814;DHT22;389;48.710;9.392;2022-09-27T18:56:35;11.10;97.40
814;DHT22;389;48.710;9.392;2022-09-27T18:59:06;11.10;97.60
814;DHT22;389;48.710;9.392;2022-09-27T19:01:33;11.10;97.70
814;DHT22;389;48.710;9.392;2022-09-27T19:04:01;11.10;97.90
814;DHT22;389;48.710;9.392;2022-09-27T19:06:27;11.10;97.90
814;DHT22;389;48.710;9.392;2022-09-27T19:08:56;11.10;98.00
814;DHT22;389;48.710;9.392;2022-09-27T19:11:24;11.10;98.20
814;DHT22;389;48.710;9.392;2022-09-27T19:13:52;11.10;98.20
814;DHT22;389;48.710;9.392;2022-09-27T19:16:24;11.10;98.40
814;DHT22;389;48.710;9.392;2022-09-27T19:18:50;10.90;98.30
814;DHT22;389;48.710;9.392;2022-09-27T19:21:19;11.00;98.40
814;DHT22;389;48.710;9.392;2022-09-27T19:23:45;11.00;98.50
814;DHT22;389;48.710;9.392;2022-09-27T19:26:14;10.80;98.70
814;DHT22;389;48.710;9.392;2022-09-27T19:28:42;10.80;98.70
814;DHT22;389;48.710;9.392;2022-09-27T19:31:10;10.80;98.60
814;DHT22;389;48.710;9.392;2022-09-27T19:33:38;10.90;98.60
814;DHT22;389;48.710;9.392;2022-09-27T19:36:25;10.60;98.50
814;DHT22;389;48.710;9.392;2022-09-27T19:38:55;10.70;98.50
814;DHT22;389;48.710;9.392;2022-09-27T19:41:30;10.60;98.30
814;DHT22;389;48.710;9.392;2022-09-27T19:44:01;10.50;98.20
814;DHT22;389;48.710;9.392;2022-09-27T19:46:34;10.40;98.30
814;DHT22;389;48.710;9.392;2022-09-27T19:49:35;10.30;98.30
814;DHT22;389;48.710;9.392;2022-09-27T19:52:10;10.20;98.40
814;DHT22;389;48.710;9.392;2022-09-27T19:58:54;9.80;99.10